Terminal Aerodrome Forecast
Issued by NWS

Home | Current Version | Previous Version | Text Only | Print | Product List | Glossary Off
Versions: 1 2 3 4 5 6 7 8 9 10 11 12 13

895
FTUS43 KBIS 211120
TAFJMS
TAF
KJMS 211120Z 2112/2212 00000KT P6SM -SHRA BKN100
     FM211400 17004KT P6SM VCSH BKN090
     FM211600 16004KT P6SM BKN110
     FM211900 27005KT P6SM SCT110
     FM220200 33005KT P6SM FEW200=

USA.gov is the U.S. government's official web portal to all federal, state and local government web resources and services.